Time;durP1;ratioP1;P1;durP2;ratioP2;P2;SDS_P1;SDS_P2;PMS_P1;PMS_P2;Temp;Humidity;BMP_temperature;BMP_pressure;BME280_temperature;BME280_humidity;BME280_pressure;Samples;Min_cycle;Max_cycle;Signal;HPM_P1;HPM_P2
2022/03/23 00:01:55;;;;;;;6.17;4.50;;;2.60;59.90;2.30;102090.00;;;;4909613;28;100735;-70
2022/03/23 00:04:21;;;;;;;4.30;3.90;;;2.60;60.10;2.30;102082.00;;;;4913770;28;93198;-69
2022/03/23 00:06:47;;;;;;;7.27;4.60;;;2.60;60.40;2.20;102085.00;;;;4925942;28;92984;-70
2022/03/23 00:09:14;;;;;;;5.50;4.60;;;2.10;60.30;2.20;102082.00;;;;4936076;28;122423;-70
2022/03/23 00:11:41;;;;;;;6.17;5.23;;;2.50;60.90;2.20;102080.00;;;;4955039;28;93723;-70
2022/03/23 00:14:09;;;;;;;8.80;4.50;;;2.50;61.00;2.10;102069.00;;;;4937419;28;92864;-70
2022/03/23 00:16:36;;;;;;;11.30;4.30;;;2.40;61.20;2.10;102081.00;;;;4954755;28;92966;-70
2022/03/23 00:19:04;;;;;;;6.67;3.40;;;2.40;61.60;2.10;102087.00;;;;4944909;28;93624;-70
2022/03/23 00:21:30;;;;;;;9.10;6.03;;;2.40;61.80;2.00;102089.00;;;;4934874;28;92923;-70
2022/03/23 00:23:56;;;;;;;6.30;4.33;;;2.30;62.00;2.00;102075.00;;;;4936059;28;92753;-70
2022/03/23 00:26:22;;;;;;;6.93;5.03;;;2.30;62.20;2.00;102078.00;;;;4934632;28;93798;-70
2022/03/23 00:28:48;;;;;;;7.67;4.47;;;2.30;62.50;2.00;102078.00;;;;4935574;28;122783;-70
2022/03/23 00:31:15;;;;;;;6.37;4.60;;;2.20;62.70;1.90;102073.00;;;;4934646;28;92977;-70
2022/03/23 00:33:40;;;;;;;10.83;5.93;;;2.20;63.60;1.90;102074.00;;;;4936115;28;93273;-70
2022/03/23 00:36:07;;;;;;;6.90;4.67;;;2.20;63.00;1.80;102077.00;;;;4933910;28;108121;-69
2022/03/23 00:38:33;;;;;;;8.13;5.07;;;2.20;63.40;1.80;102068.00;;;;4935234;28;99070;-70
2022/03/23 00:40:59;;;;;;;5.90;4.77;;;2.10;63.60;1.80;102070.00;;;;4916502;28;94665;-70
2022/03/23 00:43:24;;;;;;;8.50;4.73;;;2.10;64.00;1.70;102066.00;;;;4935148;28;109972;-70
2022/03/23 00:45:50;;;;;;;5.13;4.20;;;2.10;64.30;1.70;102065.00;;;;4933739;28;108176;-70
2022/03/23 00:48:16;;;;;;;7.33;5.60;;;2.00;64.80;1.70;102056.00;;;;4970567;28;122918;-70
2022/03/23 00:50:42;;;;;;;9.17;4.53;;;1.90;65.20;1.60;102062.00;;;;4958018;28;122051;-70
2022/03/23 00:53:08;;;;;;;6.27;4.33;;;1.90;65.70;1.60;102078.00;;;;4954901;28;92831;-70
2022/03/23 00:55:33;;;;;;;5.50;4.33;;;1.90;66.10;1.60;102068.00;;;;4943311;28;92775;-70
2022/03/23 00:57:59;;;;;;;5.77;4.03;;;1.90;66.60;1.60;102068.00;;;;4948246;28;122144;-71
2022/03/23 01:00:25;;;;;;;8.73;5.67;;;1.90;67.00;1.50;102059.00;;;;4953447;28;121823;-70
2022/03/23 01:02:52;;;;;;;12.37;5.43;;;1.80;67.50;1.40;102057.00;;;;4940596;28;109367;-71
2022/03/23 01:05:18;;;;;;;12.13;5.00;;;1.80;68.00;1.40;102055.00;;;;4934274;28;92741;-71
2022/03/23 01:07:44;;;;;;;8.93;5.03;;;1.70;68.60;1.40;102050.00;;;;4933578;28;122191;-71
2022/03/23 01:10:13;;;;;;;7.43;4.77;;;1.70;69.10;1.30;102049.00;;;;4916762;28;97964;-70
2022/03/23 01:12:40;;;;;;;4.73;3.90;;;1.60;69.60;1.20;102058.00;;;;4916975;28;93018;-69
2022/03/23 01:15:08;;;;;;;8.97;3.97;;;1.60;70.20;1.20;102053.00;;;;4939634;28;93879;-70
2022/03/23 01:17:34;;;;;;;4.87;4.13;;;1.50;70.70;1.10;102046.00;;;;4936317;28;93401;-71
2022/03/23 01:19:59;;;;;;;9.43;4.73;;;1.40;71.20;1.10;102054.00;;;;4948881;28;121496;-71
2022/03/23 01:22:25;;;;;;;8.83;5.40;;;1.40;72.00;1.00;102044.00;;;;4934449;28;109861;-71
2022/03/23 01:24:51;;;;;;;6.40;4.63;;;1.30;72.50;1.00;102050.00;;;;4942766;28;108320;-71
2022/03/23 01:27:16;;;;;;;6.43;4.63;;;1.30;73.00;0.90;102044.00;;;;4951998;28;121463;-71
2022/03/23 01:29:42;;;;;;;6.47;4.27;;;1.20;73.60;0.90;102049.00;;;;4953237;28;122519;-71
2022/03/23 01:32:09;;;;;;;6.83;4.80;;;1.20;74.00;0.90;102042.00;;;;4951559;28;109539;-71
2022/03/23 01:34:35;;;;;;;5.40;3.87;;;1.20;74.70;0.80;102052.00;;;;4954258;28;93047;-71
2022/03/23 01:37:00;;;;;;;6.27;4.47;;;1.10;75.10;0.80;102066.00;;;;4952096;28;93053;-71
2022/03/23 01:39:26;;;;;;;4.37;4.00;;;1.20;75.70;0.80;102049.00;;;;4952762;28;119727;-71
2022/03/23 01:41:51;;;;;;;7.97;4.87;;;1.10;76.30;0.70;102053.00;;;;4953439;28;109248;-71
2022/03/23 01:44:23;;;;;;;6.23;4.53;;;1.10;76.80;0.70;102051.00;;;;4942349;28;108246;-71
2022/03/23 01:46:58;;;;;;;6.17;4.13;;;1.10;77.40;0.70;102043.00;;;;4933177;28;113018;-71
2022/03/23 01:49:24;;;;;;;6.20;3.97;;;1.00;77.80;0.60;102045.00;;;;4939098;28;92863;-71
2022/03/23 01:51:50;;;;;;;4.73;4.00;;;1.00;78.90;0.60;102041.00;;;;4933076;28;109909;-71
2022/03/23 01:54:15;;;;;;;5.33;4.33;;;0.90;80.20;0.50;102032.00;;;;4934339;28;108850;-71
2022/03/23 01:56:42;;;;;;;4.87;4.10;;;0.80;81.20;0.40;102036.00;;;;4952241;28;122781;-71
2022/03/23 01:59:09;;;;;;;5.07;4.60;;;0.70;82.10;0.30;102027.00;;;;4934524;28;121148;-71
2022/03/23 02:01:35;;;;;;;7.47;5.10;;;0.70;82.70;0.30;102034.00;;;;4934369;28;100601;-72
2022/03/23 02:04:01;;;;;;;5.93;4.33;;;1.30;84.00;0.20;102020.00;;;;4918301;28;107317;-71
2022/03/23 02:06:27;;;;;;;5.77;4.60;;;0.70;84.40;0.20;102034.00;;;;4950200;28;123710;-71
2022/03/23 02:08:52;;;;;;;11.83;5.00;;;0.50;84.60;0.10;102031.00;;;;4954049;28;92749;-72
2022/03/23 02:11:18;;;;;;;6.57;4.30;;;0.50;85.00;0.10;102037.00;;;;4915931;28;109978;-72
2022/03/23 02:13:44;;;;;;;4.20;3.70;;;0.40;85.40;0.10;102030.00;;;;4953773;28;92833;-71
2022/03/23 02:16:10;;;;;;;4.67;3.63;;;0.40;85.90;0.10;102031.00;;;;4950852;28;93939;-72
2022/03/23 02:18:35;;;;;;;5.70;4.77;;;0.40;86.50;0.10;102014.00;;;;4932793;28;122431;-71
2022/03/23 02:21:01;;;;;;;6.67;4.70;;;0.40;86.80;0.00;102011.00;;;;4932912;28;110084;-71
2022/03/23 02:23:27;;;;;;;6.13;3.97;;;0.30;87.20;0.00;102011.00;;;;4934495;28;92982;-71
2022/03/23 02:26:00;;;;;;;6.43;5.10;;;0.30;87.70;-0.10;102013.00;;;;4931810;28;121636;-71
2022/03/23 02:28:27;;;;;;;5.73;4.17;;;0.30;89.20;-0.10;102010.00;;;;4932360;28;93814;-71
2022/03/23 02:30:54;;;;;;;5.23;4.53;;;0.30;90.30;-0.20;102008.00;;;;4933313;28;92912;-71
2022/03/23 02:33:21;;;;;;;9.40;4.80;;;0.10;90.50;-0.30;102005.00;;;;4935530;28;108951;-72
2022/03/23 02:35:50;;;;;;;5.57;4.97;;;0.10;90.70;-0.30;102002.00;;;;4932022;28;122564;-72
2022/03/23 02:38:16;;;;;;;9.53;4.87;;;0.00;90.90;-0.40;102004.00;;;;4934090;28;93125;-71
2022/03/23 02:40:43;;;;;;;6.60;4.50;;;0.00;91.30;-0.50;102007.00;;;;4932606;28;99757;-72
2022/03/23 02:43:09;;;;;;;5.97;5.27;;;-0.10;91.90;-0.50;102007.00;;;;4928953;28;97669;-71
2022/03/23 02:45:35;;;;;;;5.27;3.93;;;-0.20;92.20;-0.50;102010.00;;;;4941434;28;122316;-72
2022/03/23 02:48:03;;;;;;;6.33;4.47;;;-0.20;92.30;-0.60;102006.00;;;;4953178;28;92840;-72
2022/03/23 02:50:28;;;;;;;4.77;3.83;;;-0.20;92.50;-0.60;102002.00;;;;4918329;28;93022;-71
2022/03/23 03:01:54;;;;;;;8.03;5.37;;;-0.40;93.60;-0.80;101995.00;;;;4932959;28;93157;-70
2022/03/23 03:04:21;;;;;;;13.50;5.77;;;-0.40;93.70;-0.80;101992.00;;;;4935800;28;92839;-71
2022/03/23 03:06:48;;;;;;;6.37;5.00;;;-0.50;94.00;-0.80;101987.00;;;;4951372;28;117706;-71
2022/03/23 03:09:15;;;;;;;5.10;4.10;;;-0.50;94.70;-0.90;101986.00;;;;4952768;28;92979;-71
2022/03/23 03:11:44;;;;;;;4.97;4.47;;;-0.50;95.10;-0.90;101991.00;;;;4952773;28;92103;-71
2022/03/23 03:14:12;;;;;;;6.03;4.57;;;-0.50;95.50;-0.90;102001.00;;;;4941342;28;92754;-71
2022/03/23 03:16:38;;;;;;;8.30;5.33;;;-0.60;95.90;-0.90;101997.00;;;;4932273;28;93105;-71
2022/03/23 03:19:10;;;;;;;7.13;4.13;;;-0.50;95.50;-0.90;101998.00;;;;4931718;28;108952;-71
2022/03/23 03:21:36;;;;;;;6.17;4.63;;;-0.60;95.40;-0.90;101999.00;;;;4934313;28;92835;-71
2022/03/23 03:24:03;;;;;;;6.70;4.60;;;-0.60;95.40;-0.90;101994.00;;;;4943920;28;93287;-71
2022/03/23 03:26:30;;;;;;;8.23;5.10;;;-0.60;95.40;-1.00;101985.00;;;;4931750;28;113079;-71
2022/03/23 03:28:57;;;;;;;8.23;4.83;;;-0.60;95.50;-1.00;101989.00;;;;4932656;28;93886;-71
2022/03/23 03:31:23;;;;;;;6.63;4.43;;;-0.70;95.60;-1.00;101987.00;;;;4942232;28;92828;-71
2022/03/23 03:33:49;;;;;;;7.80;4.80;;;-0.60;95.90;-1.00;101987.00;;;;4952693;28;92649;-71
2022/03/23 03:36:15;;;;;;;6.93;5.30;;;-0.60;95.90;-1.00;101989.00;;;;4949920;28;109289;-71
2022/03/23 03:38:43;;;;;;;6.30;5.40;;;-0.50;96.10;-1.00;101998.00;;;;4952015;28;113664;-71
2022/03/23 03:41:09;;;;;;;6.87;5.80;;;-0.60;95.90;-1.00;101997.00;;;;4939965;28;93226;-71
2022/03/23 03:43:35;;;;;;;9.33;5.87;;;-0.60;96.10;-1.00;101991.00;;;;4950759;28;93756;-72
2022/03/23 03:46:03;;;;;;;8.90;6.00;;;-0.60;96.30;-1.00;102009.00;;;;4935899;28;93404;-72
2022/03/23 03:48:29;;;;;;;8.03;4.63;;;-0.70;96.20;-1.10;102004.00;;;;4936331;28;93961;-71
2022/03/23 03:50:54;;;;;;;10.53;5.80;;;-0.70;96.30;-1.10;101995.00;;;;4901354;28;97010;-71
2022/03/23 03:53:20;;;;;;;9.90;5.63;;;-0.70;96.40;-1.10;101995.00;;;;4935837;28;108542;-71
2022/03/23 03:55:46;;;;;;;8.67;4.17;;;-0.70;96.40;-1.10;101997.00;;;;4933914;28;123854;-71
2022/03/23 03:58:12;;;;;;;8.60;5.73;;;-0.60;96.50;-1.10;102000.00;;;;4936162;28;93682;-71
2022/03/23 04:00:38;;;;;;;5.50;4.07;;;-0.80;96.60;-1.10;101988.00;;;;4935948;28;92142;-71
2022/03/23 04:03:05;;;;;;;10.77;4.57;;;-0.70;96.70;-1.10;101984.00;;;;4935669;28;99343;-71
2022/03/23 04:05:33;;;;;;;6.33;5.23;;;-0.70;96.80;-1.10;101987.00;;;;4916742;28;111938;-71
2022/03/23 04:07:59;;;;;;;5.47;4.97;;;-0.70;96.90;-1.10;101993.00;;;;4948952;28;94102;-71
2022/03/23 04:10:26;;;;;;;4.97;3.93;;;-0.70;97.20;-1.10;101999.00;;;;4927492;28;110120;-71
2022/03/23 04:12:53;;;;;;;6.60;4.83;;;-0.70;97.40;-1.10;102004.00;;;;4914783;28;96287;-71
2022/03/23 04:15:20;;;;;;;7.70;5.10;;;-0.70;97.40;-1.10;101992.00;;;;4932691;28;108027;-71
2022/03/23 04:17:51;;;;;;;7.27;4.93;;;-0.80;97.70;-1.10;101993.00;;;;4955558;28;92953;-71
2022/03/23 04:20:17;;;;;;;7.07;5.20;;;-0.80;98.30;-1.20;101991.00;;;;4940156;28;92757;-72
2022/03/23 04:22:43;;;;;;;7.10;4.97;;;-0.80;98.90;-1.20;101989.00;;;;4917886;28;92949;-71
2022/03/23 04:25:11;;;;;;;9.53;5.23;;;-0.80;99.00;-1.30;101999.00;;;;4942312;28;93015;-72
2022/03/23 04:27:52;;;;;;;5.67;4.90;;;-0.90;98.80;-1.30;102004.00;;;;4935812;28;111509;-71
2022/03/23 04:30:20;;;;;;;4.50;4.10;;;-0.90;98.90;-1.30;102005.00;;;;4954980;28;95411;-72
2022/03/23 04:32:49;;;;;;;6.77;5.00;;;-0.90;99.00;-1.30;102001.00;;;;4941577;28;93843;-72
2022/03/23 04:35:15;;;;;;;7.93;5.00;;;-0.90;99.10;-1.30;102010.00;;;;4917319;28;93238;-71
2022/03/23 04:37:42;;;;;;;13.73;5.83;;;-1.00;99.10;-1.30;102007.00;;;;4947073;28;92715;-71
2022/03/23 04:40:11;;;;;;;7.83;6.50;;;-0.90;99.20;-1.30;102012.00;;;;4936806;28;93173;-71
2022/03/23 04:42:37;;;;;;;10.73;7.07;;;-0.90;99.70;-1.30;102019.00;;;;4935433;28;92787;-71
2022/03/23 04:45:06;;;;;;;8.70;6.73;;;-1.00;99.40;-1.40;102013.00;;;;4934830;28;105356;-71
2022/03/23 04:47:33;;;;;;;18.00;8.83;;;-1.00;99.50;-1.30;102007.00;;;;4935306;28;93511;-71
2022/03/23 04:50:00;;;;;;;14.10;6.23;;;-0.90;99.50;-1.40;102014.00;;;;4947077;28;92034;-71
2022/03/23 04:52:25;;;;;;;6.67;5.43;;;-0.90;99.60;-1.40;102016.00;;;;4954535;28;92858;-71
2022/03/23 04:54:56;;;;;;;15.30;6.80;;;-1.00;99.90;-1.40;102009.00;;;;4952693;28;123033;-72
2022/03/23 04:57:26;;;;;;;8.13;5.37;;;-1.00;99.80;-1.40;102017.00;;;;4936605;28;93856;-71
2022/03/23 04:59:53;;;;;;;7.13;5.50;;;-1.00;99.80;-1.50;102017.00;;;;4954768;28;92928;-71
2022/03/23 05:02:19;;;;;;;6.43;5.70;;;-1.00;99.90;-1.50;102021.00;;;;4945808;28;93017;-71
2022/03/23 05:04:45;;;;;;;8.63;5.47;;;-1.10;99.90;-1.50;102011.00;;;;4934487;28;94033;-71
2022/03/23 05:07:12;;;;;;;9.47;4.97;;;-1.10;99.90;-1.50;102011.00;;;;4925643;28;94133;-71
2022/03/23 05:09:38;;;;;;;10.40;6.00;;;-1.20;99.90;-1.60;102018.00;;;;4935559;28;93447;-71
2022/03/23 05:12:04;;;;;;;5.50;5.00;;;-1.10;99.90;-1.60;102005.00;;;;4955449;28;92848;-71
2022/03/23 05:14:30;;;;;;;6.03;5.10;;;-1.20;99.90;-1.60;102011.00;;;;4936199;28;110215;-72
2022/03/23 05:16:56;;;;;;;6.07;5.57;;;-1.20;99.90;-1.60;102012.00;;;;4935442;28;114151;-72
2022/03/23 05:19:21;;;;;;;9.83;6.37;;;-1.20;99.90;-1.60;102016.00;;;;4954086;28;109663;-72
2022/03/23 05:21:47;;;;;;;8.57;5.77;;;-1.10;99.90;-1.60;102018.00;;;;4933286;28;109197;-71
2022/03/23 05:24:13;;;;;;;8.17;5.27;;;-1.30;99.90;-1.60;102011.00;;;;4940807;28;94109;-72
2022/03/23 05:26:39;;;;;;;6.87;5.27;;;-1.90;99.90;-1.60;102016.00;;;;4929782;28;121908;-71
2022/03/23 05:29:04;;;;;;;5.73;5.07;;;-1.20;99.90;-1.40;102019.00;;;;4923526;28;110045;-72
2022/03/23 05:31:30;;;;;;;12.17;6.90;;;-1.10;99.90;-1.30;102026.00;;;;4911707;28;109123;-72
2022/03/23 05:33:56;;;;;;;8.77;7.20;;;-1.00;99.90;-1.20;102022.00;;;;4930268;28;120093;-72
2022/03/23 05:36:21;;;;;;;11.60;6.23;;;-0.90;99.90;-1.10;102025.00;;;;4912008;28;122087;-72
2022/03/23 05:38:47;;;;;;;10.47;6.67;;;-0.80;99.90;-0.90;102024.00;;;;4895184;28;110062;-72
2022/03/23 05:41:13;;;;;;;7.70;4.73;;;-0.60;99.90;-0.80;102011.00;;;;4931243;28;92929;-72
2022/03/23 05:43:39;;;;;;;10.10;4.30;;;-0.50;99.90;-0.70;102021.00;;;;4908109;28;122584;-72
2022/03/23 05:46:04;;;;;;;5.60;4.10;;;-0.20;99.90;-0.50;102019.00;;;;4897906;28;122319;-72
2022/03/23 05:48:30;;;;;;;14.90;6.10;;;-0.20;99.90;-0.30;102025.00;;;;4936643;28;93070;-72
2022/03/23 05:50:56;;;;;;;11.27;6.03;;;-0.10;99.90;-0.10;102024.00;;;;4929795;28;102224;-72
2022/03/23 05:53:22;;;;;;;8.30;4.53;;;0.10;99.90;0.10;102024.00;;;;4929819;28;121287;-72
2022/03/23 05:55:48;;;;;;;8.53;5.17;;;0.40;99.90;0.20;102022.00;;;;4934468;28;93329;-72
2022/03/23 05:58:14;;;;;;;10.20;6.30;;;0.50;99.90;0.40;102026.00;;;;4937188;28;111023;-72
2022/03/23 06:00:40;;;;;;;5.87;5.20;;;0.50;99.90;0.50;102016.00;;;;4933527;28;92820;-72
2022/03/23 06:03:05;;;;;;;6.57;4.67;;;0.70;99.90;0.70;102022.00;;;;4931829;28;92656;-72
2022/03/23 06:05:31;;;;;;;8.27;4.60;;;0.90;99.90;0.80;102019.00;;;;4912564;28;101226;-72
2022/03/23 06:07:57;;;;;;;11.80;5.73;;;1.10;99.90;1.00;102022.00;;;;4929217;28;111847;-71
2022/03/23 06:10:22;;;;;;;8.33;5.13;;;1.20;99.90;1.30;102023.00;;;;4950560;28;109699;-71
2022/03/23 06:12:48;;;;;;;6.77;5.00;;;1.40;99.90;1.60;102017.00;;;;4951830;28;119645;-71
2022/03/23 06:15:14;;;;;;;7.33;6.00;;;1.60;99.80;1.80;102027.00;;;;4951777;28;121620;-71
2022/03/23 06:17:40;;;;;;;10.93;6.37;;;2.00;99.30;2.10;102025.00;;;;4952315;28;111117;-71
2022/03/23 06:20:07;;;;;;;11.00;6.83;;;2.20;98.50;2.30;102027.00;;;;4930962;28;93314;-72
2022/03/23 06:22:33;;;;;;;8.37;6.37;;;2.40;97.90;2.50;102032.00;;;;4916197;28;93153;-72
2022/03/23 06:24:58;;;;;;;8.17;6.30;;;2.50;96.90;2.70;102026.00;;;;4911587;28;94988;-72
2022/03/23 06:27:25;;;;;;;9.70;5.87;;;2.80;96.20;2.90;102020.00;;;;4914169;28;109917;-70
2022/03/23 06:29:51;;;;;;;7.53;5.97;;;3.00;95.70;3.10;102034.00;;;;4913798;28;93289;-70
2022/03/23 06:32:17;;;;;;;7.77;5.67;;;3.20;95.40;3.40;102028.00;;;;4930203;28;92953;-70
2022/03/23 06:34:43;;;;;;;6.67;5.70;;;4.10;95.20;3.70;102027.00;;;;4952180;28;93862;-70
2022/03/23 06:37:09;;;;;;;12.93;6.37;;;3.80;94.60;4.10;102021.00;;;;4907126;28;93002;-70
2022/03/23 06:39:35;;;;;;;9.43;6.20;;;4.80;94.30;4.50;102032.00;;;;4929789;28;107490;-70
2022/03/23 06:42:01;;;;;;;9.70;6.87;;;4.40;93.40;4.90;102038.00;;;;4952815;28;113038;-70
2022/03/23 06:44:26;;;;;;;10.37;6.33;;;4.70;92.50;5.30;102029.00;;;;4941288;28;93301;-70
2022/03/23 06:46:52;;;;;;;12.63;7.90;;;5.20;91.60;5.70;102036.00;;;;4934984;28;92661;-70
2022/03/23 06:49:18;;;;;;;12.63;8.50;;;5.60;90.60;6.10;102046.00;;;;4944335;28;92871;-70
2022/03/23 06:51:44;;;;;;;18.87;9.23;;;6.60;90.10;6.50;102054.00;;;;4932154;28;123504;-70
2022/03/23 06:54:09;;;;;;;11.30;7.63;;;6.30;88.30;6.90;102041.00;;;;4933429;28;92591;-70
2022/03/23 06:56:35;;;;;;;14.83;8.47;;;6.80;86.60;7.30;102044.00;;;;4933647;28;110090;-70
2022/03/23 06:59:03;;;;;;;12.53;7.03;;;7.20;84.40;7.70;102039.00;;;;4932343;28;110677;-70
2022/03/23 07:01:30;;;;;;;11.03;7.57;;;7.50;82.40;8.00;102036.00;;;;4933925;28;93177;-70
2022/03/23 07:03:55;;;;;;;15.33;8.57;;;7.90;80.60;8.40;102044.00;;;;4952556;28;111009;-70
2022/03/23 07:06:21;;;;;;;10.33;7.83;;;8.30;78.30;8.70;102044.00;;;;4931853;28;110054;-69
2022/03/23 07:11:31;;;;;;;12.07;8.20;;;8.90;75.00;9.50;102046.00;;;;4951899;28;92831;-70
2022/03/23 07:13:57;;;;;;;13.13;8.27;;;9.40;73.40;9.90;102046.00;;;;4933676;28;111622;-70
2022/03/23 07:16:23;;;;;;;14.13;7.90;;;9.70;71.90;10.30;102049.00;;;;4931616;28;109956;-70
2022/03/23 07:18:49;;;;;;;15.50;8.17;;;10.20;69.80;10.60;102031.00;;;;4936599;28;93071;-71
2022/03/23 07:21:17;;;;;;;13.97;7.87;;;10.50;67.80;11.00;102045.00;;;;4933069;28;94106;-71
2022/03/23 07:23:42;;;;;;;11.20;7.47;;;10.90;65.60;11.40;102042.00;;;;4914615;28;93894;-71
2022/03/23 07:26:08;;;;;;;13.97;7.37;;;11.20;63.60;11.70;102046.00;;;;4930607;28;110060;-70
2022/03/23 07:28:34;;;;;;;8.77;5.70;;;11.50;61.60;12.00;102041.00;;;;4953040;28;92874;-70
2022/03/23 07:31:00;;;;;;;7.87;5.90;;;11.90;60.00;12.30;102045.00;;;;4936944;28;94049;-70
2022/03/23 07:33:26;;;;;;;7.47;5.40;;;12.10;58.20;12.50;102045.00;;;;4950462;28;105576;-71
2022/03/23 07:35:52;;;;;;;8.50;5.57;;;12.40;56.70;12.80;102049.00;;;;4933479;28;99503;-70
2022/03/23 07:38:18;;;;;;;8.30;5.20;;;12.70;56.20;13.00;102052.00;;;;4952740;28;92778;-70
2022/03/23 07:40:44;;;;;;;8.90;5.60;;;13.00;55.50;13.30;102056.00;;;;4952113;28;93345;-71
2022/03/23 07:43:10;;;;;;;9.80;5.33;;;13.20;54.40;13.60;102048.00;;;;4932687;28;104323;-71
2022/03/23 07:45:36;;;;;;;5.13;4.47;;;13.50;52.90;13.70;102051.00;;;;4936102;28;110401;-71
2022/03/23 07:48:02;;;;;;;8.23;5.60;;;14.00;52.20;14.00;102057.00;;;;4937729;28;108811;-71
2022/03/23 07:50:28;;;;;;;9.00;5.40;;;13.90;51.30;14.20;102056.00;;;;4932171;28;106471;-70
2022/03/23 07:52:54;;;;;;;8.57;5.70;;;14.10;50.50;14.50;102057.00;;;;4935634;28;121819;-69
2022/03/23 07:55:20;;;;;;;7.00;5.13;;;14.30;50.20;14.70;102061.00;;;;4931989;28;100624;-70
2022/03/23 07:57:46;;;;;;;14.03;5.73;;;14.60;49.50;15.00;102058.00;;;;4931779;28;93387;-71
2022/03/23 08:00:13;;;;;;;11.73;5.10;;;14.90;49.20;15.30;102062.00;;;;4932604;28;92855;-71
2022/03/23 08:02:40;;;;;;;5.65;4.57;;;15.20;48.30;15.60;102058.00;;;;4932889;28;93138;-71
2022/03/23 08:05:08;;;;;;;6.32;5.05;;;15.50;47.20;15.80;102058.00;;;;4933175;28;92261;-69
2022/03/23 08:07:33;;;;;;;7.97;5.53;;;15.70;46.80;16.00;102056.00;;;;4931989;28;97390;-70
2022/03/23 08:09:59;;;;;;;8.40;4.88;;;15.90;45.60;16.10;102056.00;;;;4930908;28;121468;-70
2022/03/23 08:12:25;;;;;;;6.15;4.53;;;16.00;44.70;16.30;102059.00;;;;4922730;28;123333;-70
2022/03/23 08:14:50;;;;;;;7.38;4.45;;;16.20;44.20;16.40;102061.00;;;;4951692;28;92753;-70
2022/03/23 08:17:16;;;;;;;7.68;4.82;;;16.30;44.20;16.50;102058.00;;;;4946159;28;108167;-70
2022/03/23 08:19:42;;;;;;;6.55;4.72;;;16.50;43.10;16.50;102052.00;;;;4950853;28;123895;-71
2022/03/23 08:22:09;;;;;;;6.22;4.53;;;16.60;41.80;16.60;102057.00;;;;4949527;28;107312;-70
2022/03/23 08:24:34;;;;;;;8.88;4.57;;;16.60;41.80;16.70;102053.00;;;;4952400;28;92628;-70
2022/03/23 08:27:00;;;;;;;7.78;4.68;;;16.70;41.40;16.90;102060.00;;;;4953367;28;99069;-70
2022/03/23 08:29:26;;;;;;;5.95;3.35;;;16.90;41.60;17.10;102058.00;;;;4955338;28;93399;-70
2022/03/23 08:31:52;;;;;;;6.45;4.28;;;17.10;40.80;17.40;102056.00;;;;4930347;28;116187;-70
2022/03/23 08:34:18;;;;;;;5.40;4.40;;;17.30;40.70;17.60;102068.00;;;;4933258;28;109175;-68
2022/03/23 08:36:44;;;;;;;10.00;4.22;;;17.70;40.50;17.90;102058.00;;;;4917342;28;93956;-69
2022/03/23 08:39:10;;;;;;;6.97;3.80;;;17.70;40.20;18.00;102063.00;;;;4934753;28;117187;-69
2022/03/23 08:41:36;;;;;;;6.65;3.72;;;17.90;39.60;18.20;102066.00;;;;4934478;28;93997;-68
2022/03/23 08:44:03;;;;;;;6.43;4.00;;;18.10;39.40;18.30;102072.00;;;;4934877;28;110115;-69
2022/03/23 08:46:29;;;;;;;5.60;4.22;;;18.30;38.30;18.40;102058.00;;;;4946482;28;92910;-67
2022/03/23 08:48:55;;;;;;;12.20;5.30;;;18.40;38.00;18.50;102064.00;;;;4951032;28;94178;-69
2022/03/23 08:51:21;;;;;;;5.30;3.78;;;18.50;37.10;18.50;102072.00;;;;4934811;28;122382;-69
2022/03/23 08:53:47;;;;;;;8.25;4.22;;;18.50;36.10;18.40;102059.00;;;;4955769;28;91978;-69
2022/03/23 08:56:12;;;;;;;7.25;4.28;;;18.50;36.00;18.50;102061.00;;;;4952624;28;109055;-70
2022/03/23 08:58:39;;;;;;;5.30;3.97;;;18.50;36.30;18.60;102057.00;;;;4955339;28;93165;-70
2022/03/23 09:01:06;;;;;;;6.78;4.47;;;18.60;36.00;18.70;102060.00;;;;4954455;28;94404;-69
2022/03/23 09:03:32;;;;;;;14.15;4.45;;;18.60;36.00;18.80;102058.00;;;;4917512;28;92949;-68
2022/03/23 09:05:59;;;;;;;7.85;4.63;;;18.80;36.10;18.90;102061.00;;;;4934764;28;93003;-69
2022/03/23 09:08:25;;;;;;;7.18;4.38;;;18.90;35.20;19.00;102067.00;;;;4934691;28;93199;-69
2022/03/23 09:10:50;;;;;;;5.00;4.40;;;19.00;34.40;19.10;102067.00;;;;4935294;28;113884;-68
2022/03/23 09:13:16;;;;;;;5.97;4.20;;;19.00;34.90;19.30;102064.00;;;;4953837;28;102863;-68
2022/03/23 09:15:42;;;;;;;6.30;4.28;;;19.20;35.30;19.60;102058.00;;;;4916613;28;107194;-68
2022/03/23 09:18:08;;;;;;;5.82;4.38;;;19.40;34.30;19.80;102069.00;;;;4934387;28;121336;-68
2022/03/23 09:20:34;;;;;;;8.13;4.18;;;19.60;34.60;20.10;102062.00;;;;4934597;28;93073;-68
2022/03/23 09:23:00;;;;;;;6.40;3.85;;;19.80;34.50;20.40;102063.00;;;;4935521;28;93454;-68
2022/03/23 09:25:26;;;;;;;5.82;4.72;;;20.10;34.40;20.70;102065.00;;;;4934167;28;93705;-69
2022/03/23 09:27:53;;;;;;;7.32;5.30;;;20.40;34.00;20.90;102057.00;;;;4934184;28;93635;-73
2022/03/23 09:30:20;;;;;;;10.48;4.60;;;20.60;33.40;20.90;102061.00;;;;4933669;28;112367;-69
2022/03/23 09:32:47;;;;;;;7.78;4.88;;;20.80;32.60;20.90;102060.00;;;;4925379;28;95203;-70
2022/03/23 09:35:15;;;;;;;6.00;3.88;;;20.80;32.70;21.10;102067.00;;;;4932574;28;92688;-73
2022/03/23 09:37:47;;;;;;;6.78;4.50;;;20.90;32.80;21.30;102071.00;;;;4928880;28;93213;-71
2022/03/23 09:40:24;;;;;;;5.13;3.50;;;21.00;33.10;21.70;102075.00;;;;4933462;28;92980;-74
2022/03/23 09:42:52;;;;;;;5.82;3.90;;;21.20;33.10;22.20;102069.00;;;;4903910;28;92267;-72
2022/03/23 09:48:00;;;;;;;6.35;4.47;;;22.00;32.00;22.70;102078.00;;;;4911015;28;93004;-74
2022/03/23 09:50:29;;;;;;;5.00;4.20;;;22.40;31.90;23.10;102077.00;;;;4912189;28;93968;-74
2022/03/23 09:52:55;;;;;;;7.57;4.07;;;22.70;31.70;23.30;102071.00;;;;4927165;28;92823;-73
2022/03/23 09:55:21;;;;;;;9.32;4.25;;;23.00;30.90;23.50;102082.00;;;;4928808;28;100184;-74
2022/03/23 09:57:47;;;;;;;5.13;4.38;;;23.20;30.00;23.60;102075.00;;;;4911470;28;121868;-74
2022/03/23 10:00:13;;;;;;;4.88;3.97;;;23.10;30.50;23.70;102071.00;;;;4913339;28;122419;-73
2022/03/23 10:02:39;;;;;;;9.52;4.95;;;23.20;29.90;23.70;102065.00;;;;4926984;28;92696;-74
2022/03/23 10:06:12;;;;;;;10.18;4.82;;;23.10;30.10;24.20;102070.00;;;;4933624;28;93094;-74
2022/03/23 10:09:25;;;;;;;8.45;3.95;;;23.30;30.50;24.70;102070.00;;;;4915078;28;115800;-73
2022/03/23 10:12:22;;;;;;;10.45;5.25;;;23.80;30.30;25.10;102061.00;;;;4919530;28;93047;-74
2022/03/23 10:16:22;;;;;;;8.57;4.70;;;24.20;29.90;25.50;102061.00;;;;4914866;28;92937;-70
2022/03/23 10:18:53;;;;;;;7.13;3.63;;;24.60;29.50;25.40;102063.00;;;;4914082;28;93918;-74
2022/03/23 10:21:30;;;;;;;4.25;3.88;;;24.70;28.50;25.10;102064.00;;;;4913463;28;93907;-72
2022/03/23 10:23:59;;;;;;;6.20;4.22;;;24.60;27.50;24.70;102054.00;;;;4912237;28;96922;-71
2022/03/23 10:26:27;;;;;;;7.82;4.95;;;24.30;27.70;24.70;102058.00;;;;4914380;28;92782;-72
2022/03/23 10:28:53;;;;;;;8.35;4.60;;;24.20;28.40;24.90;102049.00;;;;4913773;28;101058;-71
2022/03/23 10:31:24;;;;;;;7.90;4.80;;;24.40;29.10;25.20;102058.00;;;;4921129;28;112741;-73
2022/03/23 10:34:08;;;;;;;7.72;4.55;;;24.60;28.70;25.50;102061.00;;;;4935329;28;92880;-73
2022/03/23 10:36:54;;;;;;;5.97;4.15;;;24.80;28.70;25.80;102053.00;;;;4919144;28;92599;-72
2022/03/23 10:39:27;;;;;;;5.57;4.82;;;25.10;28.60;26.00;102052.00;;;;4927255;28;92732;-72
2022/03/23 10:42:14;;;;;;;8.95;5.22;;;25.40;28.30;26.10;102064.00;;;;4914771;28;95453;-73
2022/03/23 10:44:41;;;;;;;4.25;3.78;;;25.50;28.30;26.20;102055.00;;;;4913478;28;118048;-73
2022/03/23 10:47:08;;;;;;;9.88;4.82;;;25.60;28.30;26.40;102051.00;;;;4916526;28;92930;-73
2022/03/23 10:49:38;;;;;;;7.05;4.30;;;25.80;28.30;26.70;102051.00;;;;4919583;28;92898;-72
2022/03/23 10:52:13;;;;;;;5.50;3.78;;;26.00;28.30;26.90;102049.00;;;;4917343;28;109939;-74
2022/03/23 10:54:40;;;;;;;5.57;3.88;;;26.20;28.20;27.20;102050.00;;;;4934509;28;93028;-73
2022/03/23 10:57:06;;;;;;;5.97;3.65;;;26.50;28.10;27.40;102054.00;;;;4952805;28;92911;-71
2022/03/23 10:59:32;;;;;;;4.95;4.03;;;26.70;27.80;27.60;102046.00;;;;4952155;28;109510;-74
2022/03/23 11:02:07;;;;;;;9.75;5.68;;;26.80;27.50;27.70;102042.00;;;;4932876;28;94381;-72
2022/03/23 11:04:53;;;;;;;6.88;4.50;;;27.00;27.30;27.90;102036.00;;;;4934533;28;92856;-72